Time;durP1;ratioP1;P1;durP2;ratioP2;P2;SDS_P1;SDS_P2;PMS_P1;PMS_P2;Temp;Humidity;BMP_temperature;BMP_pressure;BME280_temperature;BME280_humidity;BME280_pressure;Samples;Min_cycle;Max_cycle;Signal;HPM_P1;HPM_P2
2022/05/08 00:01:08;;;;;;;10.48;3.78;;;;;;;;;;6239581;23;20434;-53
2022/05/08 00:03:34;;;;;;;15.90;3.60;;;;;;;;;;6238886;23;20098;-53
2022/05/08 00:06:10;;;;;;;7.40;3.05;;;;;;;;;;6240286;23;20048;-53
2022/05/08 00:08:40;;;;;;;11.52;3.97;;;;;;;;;;6239010;23;20561;-56
2022/05/08 00:11:06;;;;;;;10.95;3.30;;;;;;;;;;6239566;23;20016;-55
2022/05/08 00:13:40;;;;;;;18.48;3.25;;;;;;;;;;6238451;23;20035;-54
2022/05/08 00:16:06;;;;;;;10.82;3.28;;;;;;;;;;6237171;23;20024;-54
2022/05/08 00:18:33;;;;;;;6.03;1.83;;;;;;;;;;6237085;23;20062;-68
2022/05/08 00:21:06;;;;;;;10.75;3.15;;;;;;;;;;6239687;23;20059;-55
2022/05/08 00:23:33;;;;;;;17.70;3.55;;;;;;;;;;6239861;23;20059;-53
2022/05/08 00:25:59;;;;;;;10.00;3.30;;;;;;;;;;6238845;23;20473;-53
2022/05/08 00:28:33;;;;;;;9.13;2.85;;;;;;;;;;6239161;23;20055;-53
2022/05/08 00:31:00;;;;;;;9.90;3.67;;;;;;;;;;6239336;23;20361;-52
2022/05/08 00:33:26;;;;;;;14.00;3.00;;;;;;;;;;6240239;23;20086;-55
2022/05/08 00:36:00;;;;;;;11.57;3.13;;;;;;;;;;6241256;23;20062;-66
2022/05/08 00:38:26;;;;;;;15.98;3.28;;;;;;;;;;6241430;23;20055;-58
2022/05/08 00:40:53;;;;;;;7.63;3.03;;;;;;;;;;6240244;23;20390;-58
2022/05/08 00:43:32;;;;;;;11.85;3.20;;;;;;;;;;6239770;23;20062;-58
2022/05/08 00:45:59;;;;;;;9.50;3.53;;;;;;;;;;6240993;23;20082;-58
2022/05/08 00:48:33;;;;;;;7.82;3.35;;;;;;;;;;6240132;23;20028;-57
2022/05/08 00:51:01;;;;;;;11.40;3.15;;;;;;;;;;6241024;23;20066;-58
2022/05/08 00:53:32;;;;;;;14.63;3.80;;;;;;;;;;6240981;23;20035;-58
2022/05/08 00:56:13;;;;;;;10.15;3.63;;;;;;;;;;6239091;23;20465;-58
2022/05/08 00:58:40;;;;;;;15.82;3.97;;;;;;;;;;6240478;23;20024;-58
2022/05/08 01:01:14;;;;;;;11.88;3.75;;;;;;;;;;6241884;23;20403;-58
2022/05/08 01:03:41;;;;;;;8.38;3.28;;;;;;;;;;6239997;23;20036;-58
2022/05/08 01:06:08;;;;;;;15.10;3.73;;;;;;;;;;6241130;23;20031;-58
2022/05/08 01:08:45;;;;;;;9.02;3.63;;;;;;;;;;6240195;23;20309;-57
2022/05/08 01:11:12;;;;;;;15.52;3.67;;;;;;;;;;6241501;23;20028;-57
2022/05/08 01:13:39;;;;;;;17.73;3.85;;;;;;;;;;6240269;23;20028;-57
2022/05/08 01:16:16;;;;;;;12.65;3.45;;;;;;;;;;6240879;23;20028;-67
2022/05/08 01:18:43;;;;;;;11.95;3.25;;;;;;;;;;6239962;23;20031;-58
2022/05/08 01:21:12;;;;;;;7.85;3.20;;;;;;;;;;6241334;23;20023;-58
2022/05/08 01:23:46;;;;;;;8.70;3.17;;;;;;;;;;6240629;23;20028;-58
2022/05/08 01:26:12;;;;;;;11.10;3.77;;;;;;;;;;6240912;23;20469;-58
2022/05/08 01:28:39;;;;;;;12.70;3.53;;;;;;;;;;6240604;23;20313;-58
2022/05/08 01:31:12;;;;;;;13.13;3.63;;;;;;;;;;6241441;23;20028;-58
2022/05/08 01:33:39;;;;;;;8.38;3.53;;;;;;;;;;6240413;23;20095;-50
2022/05/08 01:36:05;;;;;;;10.52;3.70;;;;;;;;;;6240036;23;20483;-65
2022/05/08 01:38:39;;;;;;;14.35;3.47;;;;;;;;;;6240596;23;20059;-49
2022/05/08 01:41:05;;;;;;;9.48;3.15;;;;;;;;;;6241499;23;20024;-54
2022/05/08 01:43:34;;;;;;;9.10;3.08;;;;;;;;;;6239877;23;20127;-54
2022/05/08 01:46:09;;;;;;;11.13;3.28;;;;;;;;;;6240462;23;20020;-55
2022/05/08 01:48:35;;;;;;;11.60;3.53;;;;;;;;;;6239711;23;20042;-53
2022/05/08 01:51:02;;;;;;;7.05;2.97;;;;;;;;;;6239392;23;20074;-54
2022/05/08 01:53:36;;;;;;;7.75;3.67;;;;;;;;;;6239806;23;20316;-61
2022/05/08 01:56:16;;;;;;;8.68;3.08;;;;;;;;;;6238684;23;20020;-53
2022/05/08 01:58:50;;;;;;;12.75;3.25;;;;;;;;;;6239723;23;20599;-51
2022/05/08 02:01:16;;;;;;;5.47;2.27;;;;;;;;;;6241720;23;20027;-51
2022/05/08 02:03:43;;;;;;;4.85;2.72;;;;;;;;;;6239315;23;20034;-51
2022/05/08 02:06:18;;;;;;;7.30;2.65;;;;;;;;;;6241203;23;20406;-52
2022/05/08 02:08:44;;;;;;;10.82;3.67;;;;;;;;;;6240456;23;20074;-54
2022/05/08 02:11:11;;;;;;;7.45;2.70;;;;;;;;;;6240879;23;20082;-65
2022/05/08 02:13:44;;;;;;;13.23;3.13;;;;;;;;;;6240247;23;20067;-58
2022/05/08 02:16:11;;;;;;;10.02;3.42;;;;;;;;;;6241183;23;20051;-50
2022/05/08 02:18:37;;;;;;;6.88;2.65;;;;;;;;;;6239643;23;20430;-54
2022/05/08 02:21:11;;;;;;;3.83;2.30;;;;;;;;;;6241061;23;20020;-52
2022/05/08 02:23:37;;;;;;;7.57;2.13;;;;;;;;;;6239015;23;20028;-49
2022/05/08 02:26:04;;;;;;;9.32;2.88;;;;;;;;;;6240260;23;20418;-51
2022/05/08 02:28:37;;;;;;;4.90;2.08;;;;;;;;;;6240260;23;20469;-49
2022/05/08 02:31:03;;;;;;;3.90;2.20;;;;;;;;;;6241016;23;20485;-52
2022/05/08 02:33:30;;;;;;;6.65;2.90;;;;;;;;;;6239346;23;20064;-59
2022/05/08 02:36:03;;;;;;;3.42;2.10;;;;;;;;;;6240423;23;20052;-62
2022/05/08 02:38:29;;;;;;;3.40;1.75;;;;;;;;;;6240314;23;20481;-62
2022/05/08 02:40:55;;;;;;;4.10;2.22;;;;;;;;;;6240207;23;20409;-63
2022/05/08 02:43:29;;;;;;;6.35;1.63;;;;;;;;;;6239616;23;20529;-62
2022/05/08 02:45:59;;;;;;;5.20;1.73;;;;;;;;;;6240979;23;20051;-62
2022/05/08 02:48:26;;;;;;;6.97;2.10;;;;;;;;;;6239317;23;20016;-62
2022/05/08 02:51:00;;;;;;;3.08;1.48;;;;;;;;;;6239081;23;20426;-58
2022/05/08 02:53:26;;;;;;;4.32;1.67;;;;;;;;;;6239343;23;20107;-59
2022/05/08 02:58:51;;;;;;;3.53;2.17;;;;;;;;;;6239788;23;20369;-58
2022/05/08 03:01:18;;;;;;;3.30;1.60;;;;;;;;;;6239701;23;20095;-59
2022/05/08 03:03:52;;;;;;;4.43;1.67;;;;;;;;;;6239886;23;20108;-59
2022/05/08 03:06:18;;;;;;;3.88;1.33;;;;;;;;;;6240666;23;20035;-58
2022/05/08 03:08:45;;;;;;;3.47;1.67;;;;;;;;;;6239421;23;20123;-68
2022/05/08 03:11:27;;;;;;;3.40;1.65;;;;;;;;;;6239768;23;20365;-66
2022/05/08 03:13:54;;;;;;;4.85;1.50;;;;;;;;;;6240101;23;20031;-62
2022/05/08 03:16:30;;;;;;;2.20;1.23;;;;;;;;;;6240195;23;20058;-62
2022/05/08 03:18:57;;;;;;;2.03;1.27;;;;;;;;;;6239086;23;20030;-62
2022/05/08 03:21:23;;;;;;;2.63;1.30;;;;;;;;;;6239969;23;20069;-62
2022/05/08 03:23:57;;;;;;;4.28;1.02;;;;;;;;;;6240268;23;20031;-62
2022/05/08 03:26:24;;;;;;;3.88;1.48;;;;;;;;;;6240751;23;20055;-61
2022/05/08 03:28:51;;;;;;;2.65;1.00;;;;;;;;;;6238193;23;20542;-67
2022/05/08 03:31:24;;;;;;;1.95;1.50;;;;;;;;;;6240798;23;20048;-58
2022/05/08 03:33:50;;;;;;;3.28;1.30;;;;;;;;;;6239298;23;20416;-59
2022/05/08 03:36:17;;;;;;;2.65;0.90;;;;;;;;;;6240001;23;20070;-59
2022/05/08 03:38:50;;;;;;;4.05;1.10;;;;;;;;;;6238851;23;20095;-57
2022/05/08 03:41:16;;;;;;;3.28;1.05;;;;;;;;;;6240091;23;20059;-58
2022/05/08 03:43:44;;;;;;;2.85;1.27;;;;;;;;;;6239427;23;20020;-58
2022/05/08 03:46:18;;;;;;;4.15;1.10;;;;;;;;;;6240548;23;20035;-57
2022/05/08 03:48:44;;;;;;;1.63;0.85;;;;;;;;;;6238639;23;20028;-58
2022/05/08 03:51:11;;;;;;;5.47;1.13;;;;;;;;;;6240241;23;20067;-61
2022/05/08 03:53:44;;;;;;;5.28;1.25;;;;;;;;;;6238749;23;20024;-62
2022/05/08 03:56:17;;;;;;;1.77;1.15;;;;;;;;;;6238142;23;20035;-61
2022/05/08 03:58:51;;;;;;;3.80;1.02;;;;;;;;;;6238324;23;20016;-61
2022/05/08 04:01:17;;;;;;;4.38;1.48;;;;;;;;;;6240615;23;20083;-61
2022/05/08 04:03:44;;;;;;;2.20;0.93;;;;;;;;;;6239230;23;20416;-61
2022/05/08 04:06:17;;;;;;;5.75;1.15;;;;;;;;;;6240441;23;20055;-55
2022/05/08 04:08:44;;;;;;;2.00;0.93;;;;;;;;;;6240541;23;20056;-61
2022/05/08 04:11:10;;;;;;;4.25;1.08;;;;;;;;;;6242840;23;20051;-61
2022/05/08 04:13:44;;;;;;;4.38;1.15;;;;;;;;;;6241018;23;20031;-61
2022/05/08 04:16:16;;;;;;;2.33;0.95;;;;;;;;;;6242857;23;20052;-61
2022/05/08 04:18:43;;;;;;;3.00;1.15;;;;;;;;;;6215020;23;20028;-62
2022/05/08 04:21:16;;;;;;;2.83;1.20;;;;;;;;;;6242961;23;20027;-62
2022/05/08 04:26:34;;;;;;;2.42;0.93;;;;;;;;;;6242089;23;20059;-58
2022/05/08 04:29:01;;;;;;;2.90;1.10;;;;;;;;;;6242056;23;20365;-58
2022/05/08 04:31:27;;;;;;;1.73;0.90;;;;;;;;;;6242913;23;20270;-58
2022/05/08 04:34:01;;;;;;;1.40;1.08;;;;;;;;;;6241884;23;20031;-58
2022/05/08 04:36:29;;;;;;;1.75;1.00;;;;;;;;;;6241909;23;20024;-58
2022/05/08 04:38:55;;;;;;;2.17;1.10;;;;;;;;;;6241306;23;20051;-58
2022/05/08 04:41:28;;;;;;;2.55;1.13;;;;;;;;;;6216545;23;20063;-58
2022/05/08 04:43:59;;;;;;;1.73;0.93;;;;;;;;;;6241517;23;20024;-56
2022/05/08 04:46:26;;;;;;;1.67;0.70;;;;;;;;;;6242136;23;20024;-57
2022/05/08 04:49:00;;;;;;;4.00;1.27;;;;;;;;;;6241556;23;20428;-61
2022/05/08 04:51:26;;;;;;;1.33;1.00;;;;;;;;;;6242650;23;20090;-62
2022/05/08 04:53:53;;;;;;;3.35;1.10;;;;;;;;;;6241339;23;20028;-61
2022/05/08 04:56:39;;;;;;;3.30;1.15;;;;;;;;;;6242142;22;20488;-61
2022/05/08 04:59:12;;;;;;;1.42;0.80;;;;;;;;;;6241740;23;20058;-62
2022/05/08 05:01:46;;;;;;;2.47;0.93;;;;;;;;;;6241327;23;20060;-61
2022/05/08 05:04:12;;;;;;;2.17;0.97;;;;;;;;;;6241689;23;20095;-61
2022/05/08 05:06:41;;;;;;;2.08;1.05;;;;;;;;;;6242561;23;20024;-51
2022/05/08 05:09:14;;;;;;;4.43;1.52;;;;;;;;;;6242106;23;20103;-54
2022/05/08 05:11:40;;;;;;;1.52;0.85;;;;;;;;;;6241912;23;20123;-53
2022/05/08 05:14:06;;;;;;;6.80;1.42;;;;;;;;;;6240909;23;20378;-52
2022/05/08 05:16:40;;;;;;;2.33;1.10;;;;;;;;;;6242186;23;20074;-49
2022/05/08 05:19:06;;;;;;;3.83;1.00;;;;;;;;;;6242386;23;20016;-54
2022/05/08 05:21:33;;;;;;;1.80;0.95;;;;;;;;;;6241012;23;20359;-53
2022/05/08 05:24:06;;;;;;;2.63;1.00;;;;;;;;;;6241321;23;20059;-61
2022/05/08 05:26:32;;;;;;;4.65;0.90;;;;;;;;;;6242185;23;20111;-60
2022/05/08 05:28:59;;;;;;;7.78;1.25;;;;;;;;;;6241995;23;20059;-58
2022/05/08 05:31:32;;;;;;;1.80;1.10;;;;;;;;;;6241118;23;20055;-58
2022/05/08 05:33:58;;;;;;;5.05;1.00;;;;;;;;;;6241079;23;20729;-57
2022/05/08 05:36:25;;;;;;;1.45;0.85;;;;;;;;;;6241486;23;20500;-58
2022/05/08 05:38:58;;;;;;;2.15;0.98;;;;;;;;;;6241172;23;20048;-59
2022/05/08 05:41:24;;;;;;;4.32;0.90;;;;;;;;;;6241590;23;20139;-70
2022/05/08 05:43:51;;;;;;;1.77;0.80;;;;;;;;;;6241191;23;20431;-57
2022/05/08 05:49:09;;;;;;;3.83;1.02;;;;;;;;;;6241121;23;20449;-69
2022/05/08 05:51:43;;;;;;;2.90;1.20;;;;;;;;;;6240381;23;20056;-69
2022/05/08 05:54:09;;;;;;;7.30;1.10;;;;;;;;;;6239956;23;20151;-71
2022/05/08 05:56:36;;;;;;;2.25;0.82;;;;;;;;;;6242283;22;20020;-69
2022/05/08 05:59:15;;;;;;;2.80;0.98;;;;;;;;;;6240841;23;20082;-70
2022/05/08 06:02:02;;;;;;;2.25;1.40;;;;;;;;;;6241582;23;20023;-62
2022/05/08 06:04:35;;;;;;;3.42;1.13;;;;;;;;;;6240850;23;20063;-61
2022/05/08 06:07:01;;;;;;;2.03;0.98;;;;;;;;;;6242188;23;20023;-61
2022/05/08 06:09:28;;;;;;;2.20;1.00;;;;;;;;;;6240307;23;20035;-62
2022/05/08 06:12:01;;;;;;;2.10;0.82;;;;;;;;;;6241171;23;20056;-61
2022/05/08 06:14:27;;;;;;;2.20;1.10;;;;;;;;;;6241281;23;20111;-61
2022/05/08 06:16:55;;;;;;;3.03;1.17;;;;;;;;;;6241297;23;20028;-61
2022/05/08 06:19:31;;;;;;;2.65;0.80;;;;;;;;;;6239792;23;20399;-63
2022/05/08 06:21:57;;;;;;;2.35;0.93;;;;;;;;;;6242127;23;20047;-55
2022/05/08 06:24:23;;;;;;;2.95;1.20;;;;;;;;;;6237366;23;20067;-53
2022/05/08 06:26:57;;;;;;;4.80;1.10;;;;;;;;;;6241654;23;20046;-50
2022/05/08 06:29:23;;;;;;;2.70;1.20;;;;;;;;;;6240825;23;20099;-52
2022/05/08 06:31:51;;;;;;;1.10;0.80;;;;;;;;;;6240403;23;20361;-54
2022/05/08 06:34:26;;;;;;;1.45;0.90;;;;;;;;;;6240865;23;20554;-51
2022/05/08 06:36:53;;;;;;;1.25;0.93;;;;;;;;;;6242246;23;20024;-54
2022/05/08 06:39:19;;;;;;;1.88;1.08;;;;;;;;;;6240995;23;20477;-62
2022/05/08 06:41:52;;;;;;;2.92;1.20;;;;;;;;;;6241184;23;20042;-51
2022/05/08 06:44:18;;;;;;;1.75;0.90;;;;;;;;;;6240026;23;20091;-49
2022/05/08 06:46:44;;;;;;;1.75;1.00;;;;;;;;;;6241677;23;20031;-50
2022/05/08 06:49:18;;;;;;;2.88;0.93;;;;;;;;;;6238108;23;20027;-49
2022/05/08 06:51:46;;;;;;;2.08;0.93;;;;;;;;;;6237022;23;20108;-50
2022/05/08 06:54:12;;;;;;;3.15;1.15;;;;;;;;;;6211787;23;20098;-50
2022/05/08 06:56:53;;;;;;;3.60;1.10;;;;;;;;;;6235905;23;20066;-53
2022/05/08 07:02:18;;;;;;;4.25;1.38;;;;;;;;;;6237481;23;20062;-58
2022/05/08 07:04:45;;;;;;;3.72;1.40;;;;;;;;;;6240569;23;20028;-58
2022/05/08 07:07:13;;;;;;;3.38;1.40;;;;;;;;;;6241538;23;20123;-59
2022/05/08 07:09:46;;;;;;;1.65;0.88;;;;;;;;;;6239780;23;20051;-58
2022/05/08 07:12:12;;;;;;;1.63;0.80;;;;;;;;;;6242035;23;20059;-58
2022/05/08 07:14:42;;;;;;;1.65;1.00;;;;;;;;;;6239819;23;20055;-58
2022/05/08 07:17:15;;;;;;;1.73;1.10;;;;;;;;;;6240268;23;20059;-59
2022/05/08 07:19:45;;;;;;;2.38;1.08;;;;;;;;;;6240303;23;20044;-58
2022/05/08 07:22:18;;;;;;;2.42;1.10;;;;;;;;;;6236234;23;20028;-59
2022/05/08 07:24:58;;;;;;;1.40;0.88;;;;;;;;;;6233067;23;20381;-59
2022/05/08 07:27:25;;;;;;;4.05;1.17;;;;;;;;;;6236814;23;20637;-59
2022/05/08 07:29:52;;;;;;;3.35;1.25;;;;;;;;;;6236556;23;20070;-59
2022/05/08 07:32:27;;;;;;;2.58;1.17;;;;;;;;;;6231662;23;20351;-59
2022/05/08 07:37:45;;;;;;;2.03;0.93;;;;;;;;;;6232092;23;20880;-63
2022/05/08 07:40:12;;;;;;;3.83;1.10;;;;;;;;;;6230299;23;20520;-52
2022/05/08 07:42:38;;;;;;;6.43;1.07;;;;;;;;;;6230252;23;20135;-49
2022/05/08 07:45:11;;;;;;;5.32;1.00;;;;;;;;;;6232110;23;20024;-51
2022/05/08 07:47:37;;;;;;;2.80;1.05;;;;;;;;;;6227018;23;20150;-51
2022/05/08 07:50:04;;;;;;;2.83;0.88;;;;;;;;;;6228372;23;20515;-51
2022/05/08 07:52:40;;;;;;;5.25;1.52;;;;;;;;;;6230229;23;20095;-51
2022/05/08 07:55:07;;;;;;;3.92;0.80;;;;;;;;;;6233719;23;20111;-59
2022/05/08 07:57:34;;;;;;;1.85;0.82;;;;;;;;;;6197636;23;20104;-51
2022/05/08 08:00:07;;;;;;;2.08;0.80;;;;;;;;;;6199824;23;20372;-51
2022/05/08 08:02:33;;;;;;;2.45;1.08;;;;;;;;;;6202926;23;20252;-51
2022/05/08 08:05:00;;;;;;;3.92;1.05;;;;;;;;;;6201266;23;20024;-53
2022/05/08 08:07:33;;;;;;;3.00;1.38;;;;;;;;;;6197848;23;20048;-48
2022/05/08 08:10:11;;;;;;;0.50;0.40;;;;;;;;;;4510182;23;10001093;-50
2022/05/08 08:12:45;;;;;;;2.33;1.10;;;;;;;;;;6147090;23;20332;-52
2022/05/08 08:15:12;;;;;;;8.63;1.00;;;;;;;;;;6146620;23;20475;-48
2022/05/08 08:17:39;;;;;;;1.65;0.70;;;;;;;;;;6148418;23;20061;-61
2022/05/08 08:20:13;;;;;;;2.55;1.00;;;;;;;;;;6145390;23;20030;-62
2022/05/08 08:22:40;;;;;;;1.00;0.65;;;;;;;;;;6147625;23;20507;-62
2022/05/08 08:25:06;;;;;;;1.92;0.88;;;;;;;;;;6149444;23;20057;-62
2022/05/08 08:27:39;;;;;;;1.88;0.90;;;;;;;;;;6148041;23;20049;-62
2022/05/08 08:30:07;;;;;;;2.50;0.80;;;;;;;;;;6146755;23;20068;-62
2022/05/08 08:32:34;;;;;;;2.38;1.00;;;;;;;;;;6149267;23;20136;-59
2022/05/08 08:35:08;;;;;;;3.92;1.02;;;;;;;;;;6149422;23;20028;-59
2022/05/08 08:37:34;;;;;;;1.27;0.68;;;;;;;;;;6149490;23;20033;-59
2022/05/08 08:40:01;;;;;;;3.05;0.85;;;;;;;;;;6150270;23;20033;-59
2022/05/08 08:42:36;;;;;;;1.77;0.85;;;;;;;;;;6150482;23;20276;-59
2022/05/08 08:48:05;;;;;;;1.75;0.70;;;;;;;;;;6150250;23;20018;-59
2022/05/08 08:50:32;;;;;;;1.67;0.55;;;;;;;;;;6148590;23;20250;-59
2022/05/08 08:53:00;;;;;;;1.83;0.80;;;;;;;;;;6149844;23;20072;-59
2022/05/08 08:55:34;;;;;;;1.17;0.68;;;;;;;;;;6150818;23;20087;-62
2022/05/08 08:58:07;;;;;;;1.57;0.80;;;;;;;;;;6147856;23;20080;-62
2022/05/08 09:00:41;;;;;;;1.90;0.70;;;;;;;;;;6150986;23;20049;-62
2022/05/08 09:03:07;;;;;;;2.22;0.80;;;;;;;;;;6150219;23;20525;-62
2022/05/08 09:05:35;;;;;;;1.33;0.77;;;;;;;;;;6148227;23;20064;-62
2022/05/08 09:08:08;;;;;;;3.58;1.17;;;;;;;;;;6149271;23;20064;-62
2022/05/08 09:10:37;;;;;;;1.65;0.98;;;;;;;;;;6150284;23;20100;-63
2022/05/08 09:13:05;;;;;;;2.05;0.88;;;;;;;;;;6151657;23;20096;-52
2022/05/08 09:15:39;;;;;;;1.27;0.60;;;;;;;;;;6150892;23;20067;-63
2022/05/08 09:18:07;;;;;;;6.70;1.25;;;;;;;;;;6151167;23;20501;-62
2022/05/08 09:20:40;;;;;;;4.05;1.02;;;;;;;;;;6149443;23;20029;-62
2022/05/08 09:23:14;;;;;;;2.65;0.73;;;;;;;;;;6151724;23;20049;-63
2022/05/08 09:25:51;;;;;;;3.53;1.23;;;;;;;;;;6149629;23;20029;-62
2022/05/08 09:28:40;;;;;;;2.58;0.82;;;;;;;;;;6149381;23;20071;-63
2022/05/08 09:31:08;;;;;;;1.65;0.90;;;;;;;;;;6150706;23;20462;-63
2022/05/08 09:33:42;;;;;;;3.05;1.10;;;;;;;;;;6148270;23;20490;-64
2022/05/08 09:36:16;;;;;;;4.63;1.00;;;;;;;;;;6150573;23;20487;-64
2022/05/08 09:38:51;;;;;;;3.83;1.00;;;;;;;;;;6148831;23;20467;-63
2022/05/08 09:41:21;;;;;;;3.95;1.33;;;;;;;;;;6150794;23;20059;-63
2022/05/08 09:43:48;;;;;;;3.20;0.80;;;;;;;;;;6149554;23;20509;-64
2022/05/08 09:46:21;;;;;;;3.10;1.00;;;;;;;;;;6151079;23;20025;-63
2022/05/08 09:48:48;;;;;;;1.40;1.00;;;;;;;;;;6150870;23;20241;-60
2022/05/08 09:51:15;;;;;;;2.25;1.20;;;;;;;;;;6150177;23;20084;-64
2022/05/08 09:53:48;;;;;;;3.58;1.00;;;;;;;;;;6149178;23;20021;-52
2022/05/08 09:56:21;;;;;;;2.35;1.00;;;;;;;;;;6150054;23;20061;-51
2022/05/08 09:59:01;;;;;;;1.83;0.93;;;;;;;;;;6122091;23;20464;-51
2022/05/08 10:01:28;;;;;;;2.63;1.00;;;;;;;;;;6119197;23;20121;-54
2022/05/08 10:03:55;;;;;;;2.40;0.90;;;;;;;;;;6121925;23;20022;-56
2022/05/08 10:06:30;;;;;;;3.10;1.10;;;;;;;;;;6119969;23;20025;-53
2022/05/08 10:13:53;;;;;;;5.60;1.10;;;;;;;;;;6122286;23;20025;-61
2022/05/08 10:14:37;;;;;;;6.38;1.20;;;;;;;;;;6119225;23;20022;-53
2022/05/08 10:17:12;;;;;;;1.40;0.82;;;;;;;;;;6121677;23;20056;-53
2022/05/08 10:19:38;;;;;;;2.60;1.13;;;;;;;;;;6120841;23;20030;-56
2022/05/08 10:22:12;;;;;;;3.08;1.30;;;;;;;;;;6121997;23;20057;-52
2022/05/08 10:24:54;;;;;;;1.00;0.75;;;;;;;;;;6119643;23;20105;-51
2022/05/08 10:27:22;;;;;;;4.35;1.15;;;;;;;;;;6122542;23;20030;-63
2022/05/08 10:29:55;;;;;;;2.00;1.00;;;;;;;;;;6118072;23;20026;-60
2022/05/08 10:32:33;;;;;;;3.75;0.98;;;;;;;;;;6120913;23;20061;-60
2022/05/08 10:35:10;;;;;;;2.70;1.17;;;;;;;;;;6121949;23;20025;-59
2022/05/08 10:37:37;;;;;;;3.50;1.00;;;;;;;;;;6119369;23;20048;-60
2022/05/08 10:40:03;;;;;;;1.48;0.80;;;;;;;;;;6120380;23;20109;-60
2022/05/08 10:42:44;;;;;;;4.05;1.15;;;;;;;;;;6121587;23;20022;-60
2022/05/08 10:45:28;;;;;;;3.20;1.20;;;;;;;;;;6121647;23;20022;-60
2022/05/08 10:48:18;;;;;;;1.40;0.60;;;;;;;;;;6121217;23;20033;-64
2022/05/08 10:50:48;;;;;;;1.95;0.75;;;;;;;;;;6121772;23;20134;-74
2022/05/08 10:53:32;;;;;;;1.65;1.00;;;;;;;;;;6121791;23;20032;-75
2022/05/08 10:56:00;;;;;;;2.60;1.00;;;;;;;;;;6121010;23;20026;-73
2022/05/08 10:58:41;;;;;;;1.73;1.00;;;;;;;;;;6146327;23;20108;-74
2022/05/08 11:01:09;;;;;;;2.40;1.00;;;;;;;;;;6148966;23;20475;-74
2022/05/08 11:03:42;;;;;;;4.72;0.90;;;;;;;;;;6151256;23;20025;-75
2022/05/08 11:06:08;;;;;;;2.55;0.90;;;;;;;;;;6147909;23;20021;-74
2022/05/08 11:08:36;;;;;;;1.33;0.90;;;;;;;;;;6149705;23;20030;-60
2022/05/08 11:11:10;;;;;;;1.45;0.90;;;;;;;;;;6150064;23;20100;-60
2022/05/08 11:13:43;;;;;;;3.05;1.10;;;;;;;;;;6150644;23;20336;-61
2022/05/08 11:16:33;;;;;;;3.70;1.08;;;;;;;;;;6151132;23;20049;-61
2022/05/08 11:19:01;;;;;;;3.58;1.10;;;;;;;;;;6150314;23;20522;-60
2022/05/08 11:21:35;;;;;;;3.33;0.73;;;;;;;;;;6150842;23;20021;-60
2022/05/08 11:24:03;;;;;;;1.13;0.93;;;;;;;;;;6147617;23;20025;-74
2022/05/08 11:26:31;;;;;;;1.77;0.98;;;;;;;;;;6149825;23;20061;-60
2022/05/08 11:29:05;;;;;;;2.80;1.17;;;;;;;;;;6150332;23;20053;-55
2022/05/08 11:31:34;;;;;;;1.40;0.90;;;;;;;;;;6150410;23;20035;-55
2022/05/08 11:36:52;;;;;;;2.15;0.90;;;;;;;;;;6147321;23;20601;-53
2022/05/08 11:39:19;;;;;;;1.48;0.85;;;;;;;;;;6150046;23;20026;-50
2022/05/08 11:41:50;;;;;;;2.63;1.08;;;;;;;;;;6149180;23;20032;-50
2022/05/08 11:44:24;;;;;;;3.88;1.10;;;;;;;;;;6151118;23;20057;-61
2022/05/08 11:46:55;;;;;;;2.88;1.27;;;;;;;;;;6150693;23;20025;-74
2022/05/08 11:49:31;;;;;;;2.13;0.90;;;;;;;;;;6150635;23;20040;-74
2022/05/08 11:52:06;;;;;;;2.95;0.85;;;;;;;;;;6149346;23;20489;-73
2022/05/08 11:54:34;;;;;;;3.70;1.35;;;;;;;;;;6150039;23;20030;-73
2022/05/08 11:57:14;;;;;;;2.45;0.93;;;;;;;;;;6150080;23;20025;-71
2022/05/08 11:59:49;;;;;;;0.75;0.70;;;;;;;;;;6148946;23;20489;-71
2022/05/08 12:02:16;;;;;;;2.05;0.88;;;;;;;;;;6150098;23;20060;-54
2022/05/08 12:04:53;;;;;;;1.77;1.10;;;;;;;;;;6149874;23;20096;-50
2022/05/08 12:07:26;;;;;;;1.38;0.60;;;;;;;;;;6150653;23;20104;-74
2022/05/08 12:10:10;;;;;;;3.10;0.70;;;;;;;;;;6148418;23;20041;-73
2022/05/08 12:12:49;;;;;;;1.67;0.80;;;;;;;;;;6151188;23;20063;-74
2022/05/08 12:15:17;;;;;;;3.58;1.08;;;;;;;;;;6147216;23;20495;-74
2022/05/08 12:17:50;;;;;;;1.40;0.85;;;;;;;;;;6149523;23;20434;-74
2022/05/08 12:20:18;;;;;;;3.53;0.98;;;;;;;;;;6147455;23;20352;-73
2022/05/08 12:22:45;;;;;;;1.90;1.00;;;;;;;;;;6147845;23;20400;-51
2022/05/08 12:25:18;;;;;;;2.20;0.80;;;;;;;;;;6147497;23;20049;-55
2022/05/08 12:27:44;;;;;;;2.55;1.00;;;;;;;;;;6149092;23;20025;-53
2022/05/08 12:30:11;;;;;;;2.35;0.95;;;;;;;;;;6149664;23;20057;-55
2022/05/08 12:32:48;;;;;;;1.88;0.80;;;;;;;;;;6152649;23;20022;-55
2022/05/08 12:35:15;;;;;;;2.05;1.25;;;;;;;;;;6151928;23;20025;-53
2022/05/08 12:37:41;;;;;;;1.10;0.70;;;;;;;;;;6150863;23;20022;-54
2022/05/08 12:40:16;;;;;;;2.20;0.75;;;;;;;;;;6149427;23;20471;-63
2022/05/08 12:42:43;;;;;;;0.95;0.65;;;;;;;;;;6152062;23;20055;-55
2022/05/08 12:45:10;;;;;;;2.95;1.00;;;;;;;;;;6151977;23;20061;-53
2022/05/08 12:47:43;;;;;;;1.48;0.80;;;;;;;;;;6152463;23;20100;-52
2022/05/08 12:50:10;;;;;;;1.67;0.63;;;;;;;;;;6151427;23;20052;-52
2022/05/08 12:52:37;;;;;;;3.88;1.10;;;;;;;;;;6151732;23;20029;-53
2022/05/08 12:55:14;;;;;;;2.35;1.00;;;;;;;;;;6152733;23;20022;-53
2022/05/08 13:00:46;;;;;;;2.63;0.90;;;;;;;;;;6151674;23;20096;-62
2022/05/08 13:03:15;;;;;;;1.90;0.85;;;;;;;;;;6151832;23;20040;-61
2022/05/08 13:05:42;;;;;;;1.15;0.77;;;;;;;;;;6150491;23;20059;-61
2022/05/08 13:08:15;;;;;;;1.58;0.93;;;;;;;;;;6150614;23;20084;-61
2022/05/08 13:10:42;;;;;;;1.65;0.90;;;;;;;;;;6149869;23;20053;-61
2022/05/08 13:13:08;;;;;;;1.75;0.82;;;;;;;;;;6151725;23;20525;-61
2022/05/08 13:15:41;;;;;;;0.95;0.85;;;;;;;;;;6149767;23;20064;-61
2022/05/08 13:18:07;;;;;;;1.67;0.82;;;;;;;;;;6152000;23;20033;-54
2022/05/08 13:20:34;;;;;;;3.00;0.80;;;;;;;;;;6150634;23;20021;-61
2022/05/08 13:23:07;;;;;;;1.08;0.82;;;;;;;;;;6151123;23;20029;-60
2022/05/08 13:25:33;;;;;;;2.33;0.77;;;;;;;;;;6151348;23;20061;-60
2022/05/08 13:28:00;;;;;;;2.25;0.82;;;;;;;;;;6151080;23;20021;-60
2022/05/08 13:30:34;;;;;;;2.60;1.00;;;;;;;;;;6150330;23;20033;-59
2022/05/08 13:33:00;;;;;;;2.75;1.00;;;;;;;;;;6150558;23;20025;-60
2022/05/08 13:35:27;;;;;;;1.27;0.68;;;;;;;;;;6151493;23;20026;-60
2022/05/08 13:38:00;;;;;;;1.45;0.70;;;;;;;;;;6150809;23;20037;-61
2022/05/08 13:40:26;;;;;;;2.05;0.60;;;;;;;;;;6151362;23;20041;-62
2022/05/08 13:42:53;;;;;;;2.92;0.70;;;;;;;;;;6151036;23;20408;-61
2022/05/08 13:45:26;;;;;;;6.18;0.90;;;;;;;;;;6151232;23;20060;-61
2022/05/08 13:47:53;;;;;;;0.93;0.85;;;;;;;;;;6150876;23;20026;-61
2022/05/08 13:50:19;;;;;;;2.60;0.70;;;;;;;;;;6150748;23;20096;-61
2022/05/08 13:52:53;;;;;;;2.85;0.70;;;;;;;;;;6150202;23;20041;-61
2022/05/08 13:55:20;;;;;;;1.13;0.70;;;;;;;;;;6151032;23;20025;-61
2022/05/08 13:57:46;;;;;;;1.55;1.00;;;;;;;;;;6148448;23;20080;-60
2022/05/08 14:00:21;;;;;;;2.75;0.77;;;;;;;;;;6150939;23;20498;-49
2022/05/08 14:02:48;;;;;;;3.75;0.80;;;;;;;;;;6150112;23;20053;-53
2022/05/08 14:05:15;;;;;;;;;;;;;;;;;;6151530;23;20032;-53
2022/05/08 14:07:49;;;;;;;3.38;0.90;;;;;;;;;;6150905;23;19917;-52
2022/05/08 14:10:15;;;;;;;2.25;0.90;;;;;;;;;;6146232;23;20085;-54
2022/05/08 14:12:41;;;;;;;1.85;0.95;;;;;;;;;;6147131;23;20132;-55
2022/05/08 14:15:15;;;;;;;1.58;0.90;;;;;;;;;;6146338;23;20057;-60
2022/05/08 14:17:42;;;;;;;2.47;1.13;;;;;;;;;;6147410;23;20041;-56
2022/05/08 14:20:10;;;;;;;1.65;0.55;;;;;;;;;;6148939;23;20033;-61
2022/05/08 14:22:44;;;;;;;1.45;0.82;;;;;;;;;;6149857;23;20052;-61
2022/05/08 14:25:10;;;;;;;;;;;;;;;;;;6151902;23;20064;-61
2022/05/08 14:27:37;;;;;;;1.75;0.75;;;;;;;;;;6151187;23;19917;-61
2022/05/08 14:30:12;;;;;;;2.58;0.90;;;;;;;;;;6151410;23;20053;-61
2022/05/08 14:38:13;;;;;;;1.92;0.75;;;;;;;;;;6151282;23;20061;-60
2022/05/08 14:40:53;;;;;;;2.30;0.75;;;;;;;;;;6150936;23;20100;-59
2022/05/08 14:43:21;;;;;;;1.77;0.85;;;;;;;;;;6152054;23;20037;-60
2022/05/08 14:45:58;;;;;;;3.38;1.13;;;;;;;;;;6150164;23;20053;-60
2022/05/08 14:48:26;;;;;;;1.77;1.08;;;;;;;;;;6150414;23;20030;-60
2022/05/08 14:50:52;;;;;;;;;;;;;;;;;;6150758;23;20045;-60
2022/05/08 14:53:25;;;;;;;1.08;0.68;;;;;;;;;;6150531;23;19947;-64
2022/05/08 14:55:51;;;;;;;4.50;0.85;;;;;;;;;;6150751;23;20043;-70
2022/05/08 14:58:18;;;;;;;3.78;0.90;;;;;;;;;;6151283;23;20063;-61
2022/05/08 15:00:59;;;;;;;1.42;0.88;;;;;;;;;;6148277;23;20060;-61
2022/05/08 15:03:26;;;;;;;2.08;1.10;;;;;;;;;;6148093;23;20045;-61
2022/05/08 15:05:59;;;;;;;2.78;0.80;;;;;;;;;;6146533;23;20049;-61
2022/05/08 15:08:25;;;;;;;3.88;0.93;;;;;;;;;;6144690;23;20464;-61
2022/05/08 15:10:55;;;;;;;2.65;0.73;;;;;;;;;;6146273;23;20146;-61
2022/05/08 15:13:29;;;;;;;2.70;0.80;;;;;;;;;;6149135;23;20064;-61
2022/05/08 15:15:55;;;;;;;3.90;1.10;;;;;;;;;;6150177;23;20502;-51
2022/05/08 15:21:14;;;;;;;2.55;1.15;;;;;;;;;;6151262;23;20071;-51
2022/05/08 15:23:41;;;;;;;1.77;1.20;;;;;;;;;;6150810;23;20025;-52
2022/05/08 15:26:07;;;;;;;2.45;0.95;;;;;;;;;;6151152;23;20057;-51
2022/05/08 15:28:41;;;;;;;4.00;0.85;;;;;;;;;;6148427;23;20064;-53
2022/05/08 15:31:10;;;;;;;1.67;0.77;;;;;;;;;;6148986;23;20044;-59
2022/05/08 15:33:37;;;;;;;2.42;0.95;;;;;;;;;;6147250;23;20486;-59
2022/05/08 15:36:10;;;;;;;1.65;0.73;;;;;;;;;;6149279;23;20033;-57